Corinth, Mississippi
Current Conditions -  °F | °C
As of 7:55 AM on Thursday 23 Oct 2014 (Local Time) from KCRX Reporting Station
Haze Haze  
Wind Chill: 34°   Ceiling: Unl
Heat Index: 37°   Visibility: 5mi
Dew Point: 37°   Wind: 5mph
Humidity: 100%   Direction: 280°W
Pressure: 30.18"   Gusts: NA
Location:  34.93°N, 88.53°W
Report Text: KCRX 231255Z AUTO 28004KT 5SM BR CLR 03/03 A3018 RMK AO2
Loading
Personal Weather Stations






























Interactive Weather Map
Tropical Storm Tracking
New forecast layout! Learn more

10-Day Weather Forecast

Advertisements
Track Severe Weather on mobile